This is the latest recevied weather packets stored in our database for station/object CQ0XSM-11. If no packets are shown the sender has not sent any weather packets the latest 1 day(s).
| Time | Temp. | Humidity | Pressure | Rain* | Wind** | Luminosity | Snow |
|---|---|---|---|---|---|---|---|
| 1778007574 | 12.22° C | 69% | 996.1 hPa | 0 mm | 1.34 m/s, 338° | - | - |
| 1778007286 | 12.22° C | 68% | 996.1 hPa | 0 mm | 2.24 m/s, 298° | - | - |
| 1778006994 | 12.22° C | 67% | 996.1 hPa | 0 mm | 1.34 m/s, 306° | - | - |
| 1778006655 | 12.78° C | 65% | 996.1 hPa | 0 mm | 4.02 m/s, 313° | - | - |
| 1778006390 | 12.78° C | 63% | 995.8 hPa | 0 mm | 4.02 m/s, 311° | - | - |
| 1778006054 | 13.33° C | 61% | 995.7 hPa | 0 mm | 1.34 m/s, 317° | - | - |
| 1778005760 | 13.33° C | 60% | 995.8 hPa | 0 mm | 2.24 m/s, 316° | - | - |
| 1778005157 | 13.33° C | 60% | 995.7 hPa | 0 mm | 2.68 m/s, 316° | - | - |
| 1778004841 | 13.33° C | 61% | 995.6 hPa | 0 mm | 0.89 m/s, 286° | - | - |
| 1778004235 | 13.33° C | 60% | 995.7 hPa | 0 mm | 4.92 m/s, 318° | - | - |
| 1778003941 | 13.33° C | 60% | 995.7 hPa | 0 mm | 2.68 m/s, 310° | - | - |
| 1778003650 | 13.89° C | 58% | 995.6 hPa | 0 mm | 2.24 m/s, 308° | - | - |
| 1778003331 | 14.44° C | 55% | 995.6 hPa | 0 mm | 3.13 m/s, 310° | - | - |
| 1778003019 | 15° C | 52% | 995.6 hPa | 0 mm | 2.24 m/s, 315° | - | - |
| 1778002439 | 15° C | 50% | 995.5 hPa | 0 mm | 4.02 m/s, 273° | - | - |
| 1778002121 | 15.56° C | 49% | 995.5 hPa | 0 mm | 3.13 m/s, 305° | - | - |
| 1778001839 | 15.56° C | 49% | 995.5 hPa | 0 mm | 4.02 m/s, 270° | - | - |
| 1778001515 | 15° C | 51% | 995.6 hPa | 0 mm | 4.47 m/s, 274° | - | - |
| 1778001208 | 14.44° C | 50% | 995.6 hPa | 0 mm | 1.79 m/s, 308° | - | - |
| 1778000924 | 14.44° C | 50% | 995.6 hPa | 0 mm | 0.45 m/s, 314° | - | - |
| 1778000595 | 14.44° C | 51% | 995.6 hPa | 0 mm | 2.68 m/s, 309° | - | - |
| 1778000301 | 14.44° C | 51% | 995.6 hPa | 0 mm | 2.24 m/s, 325° | - | - |
| 1777999694 | 14.44° C | 51% | 995.7 hPa | 0 mm | 1.79 m/s, 309° | - | - |
| 1777999378 | 14.44° C | 50% | 995.6 hPa | 0 mm | 3.58 m/s, 312° | - | - |
| 1777998777 | 14.44° C | 52% | 995.5 hPa | 0 mm | 1.34 m/s, 307° | - | - |
* Rain since midnight (hover to see other rain measurements)
** Current wind speed in m/s (hover to see current wind gust speed)